sensor_id;sensor_type;location;lat;lon;timestamp;temperature;humidity
76099;DHT22;64828;49.956;8.636;2023-07-13T00:00:07;18.70;59.60
76099;DHT22;64828;49.956;8.636;2023-07-13T00:00:25;18.70;59.70
76099;DHT22;64828;49.956;8.636;2023-07-13T00:00:41;18.70;59.70
76099;DHT22;64828;49.956;8.636;2023-07-13T00:00:57;18.70;59.40
76099;DHT22;64828;49.956;8.636;2023-07-13T00:01:14;18.70;59.50
76099;DHT22;64828;49.956;8.636;2023-07-13T00:01:30;18.70;59.60
76099;DHT22;64828;49.956;8.636;2023-07-13T00:01:46;18.70;59.60
76099;DHT22;64828;49.956;8.636;2023-07-13T00:02:04;18.70;59.80
76099;DHT22;64828;49.956;8.636;2023-07-13T00:02:20;18.70;59.60
76099;DHT22;64828;49.956;8.636;2023-07-13T00:02:36;18.70;59.70
76099;DHT22;64828;49.956;8.636;2023-07-13T00:02:52;18.70;59.70
76099;DHT22;64828;49.956;8.636;2023-07-13T00:03:08;18.70;59.60
76099;DHT22;64828;49.956;8.636;2023-07-13T00:03:24;18.70;59.60
76099;DHT22;64828;49.956;8.636;2023-07-13T00:03:40;18.70;59.30
76099;DHT22;64828;49.956;8.636;2023-07-13T00:03:57;18.70;59.90
76099;DHT22;64828;49.956;8.636;2023-07-13T00:04:13;18.70;59.80
76099;DHT22;64828;49.956;8.636;2023-07-13T00:04:29;18.70;59.70
76099;DHT22;64828;49.956;8.636;2023-07-13T00:04:44;18.70;59.50
76099;DHT22;64828;49.956;8.636;2023-07-13T00:05:00;18.70;59.50
76099;DHT22;64828;49.956;8.636;2023-07-13T00:05:16;18.70;59.70
76099;DHT22;64828;49.956;8.636;2023-07-13T00:05:31;18.70;59.60
76099;DHT22;64828;49.956;8.636;2023-07-13T00:05:56;18.70;59.50
76099;DHT22;64828;49.956;8.636;2023-07-13T00:06:12;18.70;59.60
76099;DHT22;64828;49.956;8.636;2023-07-13T00:06:27;18.70;59.40
76099;DHT22;64828;49.956;8.636;2023-07-13T00:06:47;18.70;59.40
76099;DHT22;64828;49.956;8.636;2023-07-13T00:07:03;18.70;59.50
76099;DHT22;64828;49.956;8.636;2023-07-13T00:07:19;18.70;59.30
76099;DHT22;64828;49.956;8.636;2023-07-13T00:07:39;18.70;59.10
76099;DHT22;64828;49.956;8.636;2023-07-13T00:07:54;18.70;60.30
76099;DHT22;64828;49.956;8.636;2023-07-13T00:08:10;18.70;60.20
76099;DHT22;64828;49.956;8.636;2023-07-13T00:08:29;18.70;59.90
76099;DHT22;64828;49.956;8.636;2023-07-13T00:08:45;18.70;59.60
76099;DHT22;64828;49.956;8.636;2023-07-13T00:09:02;18.70;59.90
76099;DHT22;64828;49.956;8.636;2023-07-13T00:09:18;18.70;60.80
76099;DHT22;64828;49.956;8.636;2023-07-13T00:09:34;18.70;61.00
76099;DHT22;64828;49.956;8.636;2023-07-13T00:09:51;18.70;60.70
76099;DHT22;64828;49.956;8.636;2023-07-13T00:10:08;18.70;60.30
76099;DHT22;64828;49.956;8.636;2023-07-13T00:10:24;18.70;60.10
76099;DHT22;64828;49.956;8.636;2023-07-13T00:10:41;18.70;59.90
76099;DHT22;64828;49.956;8.636;2023-07-13T00:10:57;18.70;59.50
76099;DHT22;64828;49.956;8.636;2023-07-13T00:11:13;18.70;59.40
76099;DHT22;64828;49.956;8.636;2023-07-13T00:11:29;18.70;59.40
76099;DHT22;64828;49.956;8.636;2023-07-13T00:11:49;18.70;59.20
76099;DHT22;64828;49.956;8.636;2023-07-13T00:12:05;18.70;59.30
76099;DHT22;64828;49.956;8.636;2023-07-13T00:12:38;18.70;59.40
76099;DHT22;64828;49.956;8.636;2023-07-13T00:12:53;18.70;59.50
76099;DHT22;64828;49.956;8.636;2023-07-13T00:13:10;18.70;59.60
76099;DHT22;64828;49.956;8.636;2023-07-13T00:13:26;18.70;59.50
76099;DHT22;64828;49.956;8.636;2023-07-13T00:13:42;18.70;59.40
76099;DHT22;64828;49.956;8.636;2023-07-13T00:13:58;18.70;59.50
76099;DHT22;64828;49.956;8.636;2023-07-13T00:14:14;18.70;59.60
76099;DHT22;64828;49.956;8.636;2023-07-13T00:14:31;18.70;59.80
76099;DHT22;64828;49.956;8.636;2023-07-13T00:14:46;18.70;59.60
76099;DHT22;64828;49.956;8.636;2023-07-13T00:15:10;18.70;59.80
76099;DHT22;64828;49.956;8.636;2023-07-13T00:15:26;18.70;59.70
76099;DHT22;64828;49.956;8.636;2023-07-13T00:15:42;18.60;59.50
76099;DHT22;64828;49.956;8.636;2023-07-13T00:15:58;18.70;59.60
76099;DHT22;64828;49.956;8.636;2023-07-13T00:16:14;18.70;59.40
76099;DHT22;64828;49.956;8.636;2023-07-13T00:16:29;18.70;59.40
76099;DHT22;64828;49.956;8.636;2023-07-13T00:16:45;18.60;59.50
76099;DHT22;64828;49.956;8.636;2023-07-13T00:17:00;18.70;59.50
76099;DHT22;64828;49.956;8.636;2023-07-13T00:17:16;18.60;59.60
76099;DHT22;64828;49.956;8.636;2023-07-13T00:17:32;18.70;59.60
76099;DHT22;64828;49.956;8.636;2023-07-13T00:17:51;18.70;59.90
76099;DHT22;64828;49.956;8.636;2023-07-13T00:18:07;18.60;60.00
76099;DHT22;64828;49.956;8.636;2023-07-13T00:18:23;18.60;59.90
76099;DHT22;64828;49.956;8.636;2023-07-13T00:18:38;18.60;60.10
76099;DHT22;64828;49.956;8.636;2023-07-13T00:18:54;18.60;59.40
76099;DHT22;64828;49.956;8.636;2023-07-13T00:19:11;18.60;59.00
76099;DHT22;64828;49.956;8.636;2023-07-13T00:19:27;18.60;58.90
76099;DHT22;64828;49.956;8.636;2023-07-13T00:19:42;18.60;59.60
76099;DHT22;64828;49.956;8.636;2023-07-13T00:19:58;18.60;59.60
76099;DHT22;64828;49.956;8.636;2023-07-13T00:20:13;18.60;59.20
76099;DHT22;64828;49.956;8.636;2023-07-13T00:20:29;18.70;59.10
76099;DHT22;64828;49.956;8.636;2023-07-13T00:20:45;18.60;59.20
76099;DHT22;64828;49.956;8.636;2023-07-13T00:21:00;18.60;59.40
76099;DHT22;64828;49.956;8.636;2023-07-13T00:21:20;18.60;59.40
76099;DHT22;64828;49.956;8.636;2023-07-13T00:21:36;18.60;59.50
76099;DHT22;64828;49.956;8.636;2023-07-13T00:21:51;18.60;59.40
76099;DHT22;64828;49.956;8.636;2023-07-13T00:22:11;18.60;59.40
76099;DHT22;64828;49.956;8.636;2023-07-13T00:22:26;18.60;59.80
76099;DHT22;64828;49.956;8.636;2023-07-13T00:22:43;18.60;59.70
76099;DHT22;64828;49.956;8.636;2023-07-13T00:22:58;18.60;59.60
76099;DHT22;64828;49.956;8.636;2023-07-13T00:23:14;18.60;59.50
76099;DHT22;64828;49.956;8.636;2023-07-13T00:23:34;18.60;59.40
76099;DHT22;64828;49.956;8.636;2023-07-13T00:23:50;18.60;59.40
76099;DHT22;64828;49.956;8.636;2023-07-13T00:24:12;18.60;59.50
76099;DHT22;64828;49.956;8.636;2023-07-13T00:24:31;18.60;59.60
76099;DHT22;64828;49.956;8.636;2023-07-13T00:24:46;18.60;59.70
76099;DHT22;64828;49.956;8.636;2023-07-13T00:25:02;18.60;59.80
76099;DHT22;64828;49.956;8.636;2023-07-13T00:25:18;18.60;59.90
76099;DHT22;64828;49.956;8.636;2023-07-13T00:25:33;18.60;60.10
76099;DHT22;64828;49.956;8.636;2023-07-13T00:25:50;18.60;59.80
76099;DHT22;64828;49.956;8.636;2023-07-13T00:26:09;18.50;59.60
76099;DHT22;64828;49.956;8.636;2023-07-13T00:26:24;18.60;59.80
76099;DHT22;64828;49.956;8.636;2023-07-13T00:26:40;18.60;59.80
76099;DHT22;64828;49.956;8.636;2023-07-13T00:26:56;18.50;59.80
76099;DHT22;64828;49.956;8.636;2023-07-13T00:27:12;18.60;59.70
76099;DHT22;64828;49.956;8.636;2023-07-13T00:27:27;18.50;59.80
76099;DHT22;64828;49.956;8.636;2023-07-13T00:27:46;18.50;59.90
76099;DHT22;64828;49.956;8.636;2023-07-13T00:28:04;18.50;60.30
76099;DHT22;64828;49.956;8.636;2023-07-13T00:28:19;18.50;59.60
76099;DHT22;64828;49.956;8.636;2023-07-13T00:28:35;18.50;59.70
76099;DHT22;64828;49.956;8.636;2023-07-13T00:28:50;18.50;60.00
76099;DHT22;64828;49.956;8.636;2023-07-13T00:29:06;18.50;60.00
76099;DHT22;64828;49.956;8.636;2023-07-13T00:29:26;18.50;60.10
76099;DHT22;64828;49.956;8.636;2023-07-13T00:29:41;18.50;60.20
76099;DHT22;64828;49.956;8.636;2023-07-13T00:29:58;18.50;60.20
76099;DHT22;64828;49.956;8.636;2023-07-13T00:30:13;18.50;60.10
76099;DHT22;64828;49.956;8.636;2023-07-13T00:30:29;18.50;60.10
76099;DHT22;64828;49.956;8.636;2023-07-13T00:30:44;18.50;60.00
76099;DHT22;64828;49.956;8.636;2023-07-13T00:31:02;18.50;60.40
76099;DHT22;64828;49.956;8.636;2023-07-13T00:31:18;18.40;60.30
76099;DHT22;64828;49.956;8.636;2023-07-13T00:31:34;18.50;60.20
76099;DHT22;64828;49.956;8.636;2023-07-13T00:31:49;18.40;60.30
76099;DHT22;64828;49.956;8.636;2023-07-13T00:32:06;18.40;60.40
76099;DHT22;64828;49.956;8.636;2023-07-13T00:32:22;18.40;60.70
76099;DHT22;64828;49.956;8.636;2023-07-13T00:32:38;18.40;60.60
76099;DHT22;64828;49.956;8.636;2023-07-13T00:32:53;18.40;60.60
76099;DHT22;64828;49.956;8.636;2023-07-13T00:33:09;18.40;60.70
76099;DHT22;64828;49.956;8.636;2023-07-13T00:33:24;18.40;60.40
76099;DHT22;64828;49.956;8.636;2023-07-13T00:33:41;18.40;60.20
76099;DHT22;64828;49.956;8.636;2023-07-13T00:33:57;18.30;59.90
76099;DHT22;64828;49.956;8.636;2023-07-13T00:34:12;18.30;60.50
76099;DHT22;64828;49.956;8.636;2023-07-13T00:34:28;18.40;61.30
76099;DHT22;64828;49.956;8.636;2023-07-13T00:34:44;18.30;60.20
76099;DHT22;64828;49.956;8.636;2023-07-13T00:35:00;18.30;59.90
76099;DHT22;64828;49.956;8.636;2023-07-13T00:35:15;18.40;60.60
76099;DHT22;64828;49.956;8.636;2023-07-13T00:35:31;18.40;61.20
76099;DHT22;64828;49.956;8.636;2023-07-13T00:35:47;18.30;60.40
76099;DHT22;64828;49.956;8.636;2023-07-13T00:36:03;18.30;60.00
76099;DHT22;64828;49.956;8.636;2023-07-13T00:36:19;18.30;59.90
76099;DHT22;64828;49.956;8.636;2023-07-13T00:36:35;18.30;60.00
76099;DHT22;64828;49.956;8.636;2023-07-13T00:36:54;18.30;61.00
76099;DHT22;64828;49.956;8.636;2023-07-13T00:37:09;18.30;61.60
76099;DHT22;64828;49.956;8.636;2023-07-13T00:37:26;18.30;62.20
76099;DHT22;64828;49.956;8.636;2023-07-13T00:37:42;18.30;61.70
76099;DHT22;64828;49.956;8.636;2023-07-13T00:37:58;18.20;61.70
76099;DHT22;64828;49.956;8.636;2023-07-13T00:38:13;18.30;61.50
76099;DHT22;64828;49.956;8.636;2023-07-13T00:38:30;18.30;61.90
76099;DHT22;64828;49.956;8.636;2023-07-13T00:38:45;18.20;62.30
76099;DHT22;64828;49.956;8.636;2023-07-13T00:39:01;18.20;62.60
76099;DHT22;64828;49.956;8.636;2023-07-13T00:39:17;18.20;61.50
76099;DHT22;64828;49.956;8.636;2023-07-13T00:39:33;18.20;61.50
76099;DHT22;64828;49.956;8.636;2023-07-13T00:39:49;18.20;62.10
76099;DHT22;64828;49.956;8.636;2023-07-13T00:40:05;18.20;62.00
76099;DHT22;64828;49.956;8.636;2023-07-13T00:40:21;18.20;61.90
76099;DHT22;64828;49.956;8.636;2023-07-13T00:40:36;18.20;62.10
76099;DHT22;64828;49.956;8.636;2023-07-13T00:40:52;18.20;62.20
76099;DHT22;64828;49.956;8.636;2023-07-13T00:41:07;18.20;62.70
76099;DHT22;64828;49.956;8.636;2023-07-13T00:41:23;18.20;63.00
76099;DHT22;64828;49.956;8.636;2023-07-13T00:41:39;18.10;63.60
76099;DHT22;64828;49.956;8.636;2023-07-13T00:41:54;18.10;64.10
76099;DHT22;64828;49.956;8.636;2023-07-13T00:42:10;18.10;64.80
76099;DHT22;64828;49.956;8.636;2023-07-13T00:42:26;18.20;65.00
76099;DHT22;64828;49.956;8.636;2023-07-13T00:42:42;18.10;63.20
76099;DHT22;64828;49.956;8.636;2023-07-13T00:42:59;18.10;62.20
76099;DHT22;64828;49.956;8.636;2023-07-13T00:43:20;18.10;62.10
76099;DHT22;64828;49.956;8.636;2023-07-13T00:43:36;18.10;62.10
76099;DHT22;64828;49.956;8.636;2023-07-13T00:43:51;18.10;63.30
76099;DHT22;64828;49.956;8.636;2023-07-13T00:44:13;18.10;63.50
76099;DHT22;64828;49.956;8.636;2023-07-13T00:44:29;18.10;62.60
76099;DHT22;64828;49.956;8.636;2023-07-13T00:45:05;18.10;63.10
76099;DHT22;64828;49.956;8.636;2023-07-13T00:46:25;18.10;60.90
76099;DHT22;64828;49.956;8.636;2023-07-13T00:46:41;18.10;61.10
76099;DHT22;64828;49.956;8.636;2023-07-13T00:46:56;18.10;61.20
76099;DHT22;64828;49.956;8.636;2023-07-13T00:47:13;18.10;61.00
76099;DHT22;64828;49.956;8.636;2023-07-13T00:47:29;18.10;60.50
76099;DHT22;64828;49.956;8.636;2023-07-13T00:47:44;18.00;60.30
76099;DHT22;64828;49.956;8.636;2023-07-13T00:48:00;18.10;60.50
76099;DHT22;64828;49.956;8.636;2023-07-13T00:48:21;18.10;62.40
76099;DHT22;64828;49.956;8.636;2023-07-13T00:48:37;18.00;63.10
76099;DHT22;64828;49.956;8.636;2023-07-13T00:48:55;18.00;63.30
76099;DHT22;64828;49.956;8.636;2023-07-13T00:49:15;18.00;63.70
76099;DHT22;64828;49.956;8.636;2023-07-13T00:49:33;18.00;62.90
76099;DHT22;64828;49.956;8.636;2023-07-13T00:49:50;18.00;63.30
76099;DHT22;64828;49.956;8.636;2023-07-13T00:50:08;18.00;63.30
76099;DHT22;64828;49.956;8.636;2023-07-13T00:50:25;18.00;62.70
76099;DHT22;64828;49.956;8.636;2023-07-13T00:50:41;18.00;62.10
76099;DHT22;64828;49.956;8.636;2023-07-13T00:51:00;18.00;62.20
76099;DHT22;64828;49.956;8.636;2023-07-13T00:51:20;18.00;62.50
76099;DHT22;64828;49.956;8.636;2023-07-13T00:51:43;18.00;62.30
76099;DHT22;64828;49.956;8.636;2023-07-13T00:52:04;18.00;62.10
76099;DHT22;64828;49.956;8.636;2023-07-13T00:52:21;18.00;62.20
76099;DHT22;64828;49.956;8.636;2023-07-13T00:52:40;18.00;61.40
76099;DHT22;64828;49.956;8.636;2023-07-13T00:52:56;18.00;60.90
76099;DHT22;64828;49.956;8.636;2023-07-13T00:53:13;18.00;61.00
76099;DHT22;64828;49.956;8.636;2023-07-13T00:53:31;18.00;61.50
76099;DHT22;64828;49.956;8.636;2023-07-13T00:53:47;18.00;61.40
76099;DHT22;64828;49.956;8.636;2023-07-13T00:54:05;18.00;61.40
76099;DHT22;64828;49.956;8.636;2023-07-13T00:54:30;18.00;61.40
76099;DHT22;64828;49.956;8.636;2023-07-13T00:54:47;18.00;61.30
76099;DHT22;64828;49.956;8.636;2023-07-13T00:55:04;18.00;61.10
76099;DHT22;64828;49.956;8.636;2023-07-13T00:55:21;17.90;61.50
76099;DHT22;64828;49.956;8.636;2023-07-13T00:55:38;17.90;61.30
76099;DHT22;64828;49.956;8.636;2023-07-13T00:55:55;17.90;61.30
76099;DHT22;64828;49.956;8.636;2023-07-13T00:56:11;17.90;61.60
76099;DHT22;64828;49.956;8.636;2023-07-13T00:56:28;17.90;61.30
76099;DHT22;64828;49.956;8.636;2023-07-13T00:56:45;17.90;61.50
76099;DHT22;64828;49.956;8.636;2023-07-13T00:57:04;17.90;61.10
76099;DHT22;64828;49.956;8.636;2023-07-13T00:57:21;17.90;61.70
76099;DHT22;64828;49.956;8.636;2023-07-13T00:57:37;17.90;62.50
76099;DHT22;64828;49.956;8.636;2023-07-13T00:57:53;17.80;62.70
76099;DHT22;64828;49.956;8.636;2023-07-13T00:58:08;17.80;62.70
76099;DHT22;64828;49.956;8.636;2023-07-13T00:58:27;17.80;63.10
76099;DHT22;64828;49.956;8.636;2023-07-13T00:58:43;17.80;62.70
76099;DHT22;64828;49.956;8.636;2023-07-13T00:59:01;17.80;63.20
76099;DHT22;64828;49.956;8.636;2023-07-13T00:59:18;17.80;64.00
76099;DHT22;64828;49.956;8.636;2023-07-13T00:59:36;17.80;63.40
76099;DHT22;64828;49.956;8.636;2023-07-13T00:59:55;17.80;63.70
76099;DHT22;64828;49.956;8.636;2023-07-13T01:00:13;17.80;64.60
76099;DHT22;64828;49.956;8.636;2023-07-13T01:00:30;17.70;64.00
76099;DHT22;64828;49.956;8.636;2023-07-13T01:00:46;17.70;63.40
76099;DHT22;64828;49.956;8.636;2023-07-13T01:01:03;17.70;63.70
76099;DHT22;64828;49.956;8.636;2023-07-13T01:01:18;17.70;63.90
76099;DHT22;64828;49.956;8.636;2023-07-13T01:01:34;17.70;64.70
76099;DHT22;64828;49.956;8.636;2023-07-13T01:01:52;17.70;64.80
76099;DHT22;64828;49.956;8.636;2023-07-13T01:02:08;17.70;64.50
76099;DHT22;64828;49.956;8.636;2023-07-13T01:02:24;17.60;64.30
76099;DHT22;64828;49.956;8.636;2023-07-13T01:02:42;17.60;65.30
76099;DHT22;64828;49.956;8.636;2023-07-13T01:02:59;17.60;65.40
76099;DHT22;64828;49.956;8.636;2023-07-13T01:03:16;17.60;65.00
76099;DHT22;64828;49.956;8.636;2023-07-13T01:03:32;17.60;65.60
76099;DHT22;64828;49.956;8.636;2023-07-13T01:03:49;17.60;65.20
76099;DHT22;64828;49.956;8.636;2023-07-13T01:04:05;17.50;64.90
76099;DHT22;64828;49.956;8.636;2023-07-13T01:04:24;17.50;64.50
76099;DHT22;64828;49.956;8.636;2023-07-13T01:04:40;17.40;64.50
76099;DHT22;64828;49.956;8.636;2023-07-13T01:04:57;17.50;64.80
76099;DHT22;64828;49.956;8.636;2023-07-13T01:05:16;17.40;64.50
76099;DHT22;64828;49.956;8.636;2023-07-13T01:05:34;17.40;64.80
76099;DHT22;64828;49.956;8.636;2023-07-13T01:05:50;17.40;65.20
76099;DHT22;64828;49.956;8.636;2023-07-13T01:06:07;17.40;64.90
76099;DHT22;64828;49.956;8.636;2023-07-13T01:06:23;17.40;64.70
76099;DHT22;64828;49.956;8.636;2023-07-13T01:06:39;17.40;64.90
76099;DHT22;64828;49.956;8.636;2023-07-13T01:06:56;17.40;64.60
76099;DHT22;64828;49.956;8.636;2023-07-13T01:07:13;17.40;64.10
76099;DHT22;64828;49.956;8.636;2023-07-13T01:07:29;17.30;64.20
76099;DHT22;64828;49.956;8.636;2023-07-13T01:07:45;17.40;64.30
76099;DHT22;64828;49.956;8.636;2023-07-13T01:08:03;17.30;64.60
76099;DHT22;64828;49.956;8.636;2023-07-13T01:08:21;17.30;64.20
76099;DHT22;64828;49.956;8.636;2023-07-13T01:08:37;17.30;64.30
76099;DHT22;64828;49.956;8.636;2023-07-13T01:08:52;17.30;65.30
76099;DHT22;64828;49.956;8.636;2023-07-13T01:09:09;17.30;65.20
76099;DHT22;64828;49.956;8.636;2023-07-13T01:09:26;17.20;66.00
76099;DHT22;64828;49.956;8.636;2023-07-13T01:09:42;17.20;65.80
76099;DHT22;64828;49.956;8.636;2023-07-13T01:09:58;17.10;65.80
76099;DHT22;64828;49.956;8.636;2023-07-13T01:10:13;17.10;65.20
76099;DHT22;64828;49.956;8.636;2023-07-13T01:10:29;17.00;66.10
76099;DHT22;64828;49.956;8.636;2023-07-13T01:10:56;17.00;66.60
76099;DHT22;64828;49.956;8.636;2023-07-13T01:11:11;17.00;66.80
76099;DHT22;64828;49.956;8.636;2023-07-13T01:11:27;17.00;66.90
76099;DHT22;64828;49.956;8.636;2023-07-13T01:11:43;16.90;66.70
76099;DHT22;64828;49.956;8.636;2023-07-13T01:12:00;17.00;67.20
76099;DHT22;64828;49.956;8.636;2023-07-13T01:12:16;16.90;67.80
76099;DHT22;64828;49.956;8.636;2023-07-13T01:12:32;16.90;67.80
76099;DHT22;64828;49.956;8.636;2023-07-13T01:12:47;16.90;67.40
76099;DHT22;64828;49.956;8.636;2023-07-13T01:13:02;16.90;66.80
76099;DHT22;64828;49.956;8.636;2023-07-13T01:13:18;16.90;66.80
76099;DHT22;64828;49.956;8.636;2023-07-13T01:13:34;16.80;66.70
76099;DHT22;64828;49.956;8.636;2023-07-13T01:13:50;16.80;66.40
76099;DHT22;64828;49.956;8.636;2023-07-13T01:14:05;16.80;66.40
76099;DHT22;64828;49.956;8.636;2023-07-13T01:14:21;16.70;66.70
76099;DHT22;64828;49.956;8.636;2023-07-13T01:14:37;16.70;66.60
76099;DHT22;64828;49.956;8.636;2023-07-13T01:15:00;16.70;66.50
76099;DHT22;64828;49.956;8.636;2023-07-13T01:15:43;16.70;66.90
76099;DHT22;64828;49.956;8.636;2023-07-13T01:16:04;16.70;66.30
76099;DHT22;64828;49.956;8.636;2023-07-13T01:16:29;16.70;66.40
76099;DHT22;64828;49.956;8.636;2023-07-13T01:16:46;16.70;66.60
76099;DHT22;64828;49.956;8.636;2023-07-13T01:17:03;16.70;67.00
76099;DHT22;64828;49.956;8.636;2023-07-13T01:17:19;16.60;67.10
76099;DHT22;64828;49.956;8.636;2023-07-13T01:17:35;16.60;67.30
76099;DHT22;64828;49.956;8.636;2023-07-13T01:17:50;16.60;67.30
76099;DHT22;64828;49.956;8.636;2023-07-13T01:18:12;16.60;67.20
76099;DHT22;64828;49.956;8.636;2023-07-13T01:18:29;16.60;67.20
76099;DHT22;64828;49.956;8.636;2023-07-13T01:18:45;16.60;67.10
76099;DHT22;64828;49.956;8.636;2023-07-13T01:19:15;16.60;67.10
76099;DHT22;64828;49.956;8.636;2023-07-13T01:19:39;16.50;67.00
76099;DHT22;64828;49.956;8.636;2023-07-13T01:19:55;16.50;67.20
76099;DHT22;64828;49.956;8.636;2023-07-13T01:20:11;16.50;67.30
76099;DHT22;64828;49.956;8.636;2023-07-13T01:20:26;16.50;67.30
76099;DHT22;64828;49.956;8.636;2023-07-13T01:21:02;16.50;67.30
76099;DHT22;64828;49.956;8.636;2023-07-13T01:21:18;16.50;67.20
76099;DHT22;64828;49.956;8.636;2023-07-13T01:21:34;16.50;67.30
76099;DHT22;64828;49.956;8.636;2023-07-13T01:21:50;16.50;67.60
76099;DHT22;64828;49.956;8.636;2023-07-13T01:22:11;16.50;67.90
76099;DHT22;64828;49.956;8.636;2023-07-13T01:22:27;16.50;67.80
76099;DHT22;64828;49.956;8.636;2023-07-13T01:22:42;16.50;67.80
76099;DHT22;64828;49.956;8.636;2023-07-13T01:22:58;16.40;68.00
76099;DHT22;64828;49.956;8.636;2023-07-13T01:23:15;16.40;67.90
76099;DHT22;64828;49.956;8.636;2023-07-13T01:23:31;16.40;67.70
76099;DHT22;64828;49.956;8.636;2023-07-13T01:23:47;16.40;68.00
76099;DHT22;64828;49.956;8.636;2023-07-13T01:24:03;16.40;68.10
76099;DHT22;64828;49.956;8.636;2023-07-13T01:24:19;16.40;68.00
76099;DHT22;64828;49.956;8.636;2023-07-13T01:24:36;16.40;68.20
76099;DHT22;64828;49.956;8.636;2023-07-13T01:24:52;16.40;68.90
76099;DHT22;64828;49.956;8.636;2023-07-13T01:25:08;16.30;69.20
76099;DHT22;64828;49.956;8.636;2023-07-13T01:25:24;16.30;69.20
76099;DHT22;64828;49.956;8.636;2023-07-13T01:25:39;16.30;69.30
76099;DHT22;64828;49.956;8.636;2023-07-13T01:25:56;16.30;69.30
76099;DHT22;64828;49.956;8.636;2023-07-13T01:26:12;16.30;69.20
76099;DHT22;64828;49.956;8.636;2023-07-13T01:26:27;16.30;69.30
76099;DHT22;64828;49.956;8.636;2023-07-13T01:26:43;16.30;69.40
76099;DHT22;64828;49.956;8.636;2023-07-13T01:26:59;16.30;69.30
76099;DHT22;64828;49.956;8.636;2023-07-13T01:27:16;16.30;69.40
76099;DHT22;64828;49.956;8.636;2023-07-13T01:27:32;16.30;68.90
76099;DHT22;64828;49.956;8.636;2023-07-13T01:27:49;16.30;69.00
76099;DHT22;64828;49.956;8.636;2023-07-13T01:28:06;16.30;69.00
76099;DHT22;64828;49.956;8.636;2023-07-13T01:28:25;16.30;69.30
76099;DHT22;64828;49.956;8.636;2023-07-13T01:28:44;16.30;69.30
76099;DHT22;64828;49.956;8.636;2023-07-13T01:29:00;16.30;69.40
76099;DHT22;64828;49.956;8.636;2023-07-13T01:29:15;16.30;69.60
76099;DHT22;64828;49.956;8.636;2023-07-13T01:29:32;16.20;69.70
76099;DHT22;64828;49.956;8.636;2023-07-13T01:29:48;16.20;69.60
76099;DHT22;64828;49.956;8.636;2023-07-13T01:30:05;16.20;69.70
76099;DHT22;64828;49.956;8.636;2023-07-13T01:30:20;16.20;69.50
76099;DHT22;64828;49.956;8.636;2023-07-13T01:30:36;16.20;69.60
76099;DHT22;64828;49.956;8.636;2023-07-13T01:30:57;16.20;69.40
76099;DHT22;64828;49.956;8.636;2023-07-13T01:31:13;16.20;69.10
76099;DHT22;64828;49.956;8.636;2023-07-13T01:31:28;16.20;69.10
76099;DHT22;64828;49.956;8.636;2023-07-13T01:31:44;16.20;68.80
76099;DHT22;64828;49.956;8.636;2023-07-13T01:32:00;16.20;68.70
76099;DHT22;64828;49.956;8.636;2023-07-13T01:32:21;16.20;69.00
76099;DHT22;64828;49.956;8.636;2023-07-13T01:32:37;16.20;69.10
76099;DHT22;64828;49.956;8.636;2023-07-13T01:32:57;16.10;69.20
76099;DHT22;64828;49.956;8.636;2023-07-13T01:33:14;16.20;68.50
76099;DHT22;64828;49.956;8.636;2023-07-13T01:33:31;16.20;68.40
76099;DHT22;64828;49.956;8.636;2023-07-13T01:33:47;16.20;67.70
76099;DHT22;64828;49.956;8.636;2023-07-13T01:34:02;16.20;67.40
76099;DHT22;64828;49.956;8.636;2023-07-13T01:34:18;16.30;67.30
76099;DHT22;64828;49.956;8.636;2023-07-13T01:34:34;16.30;67.00
76099;DHT22;64828;49.956;8.636;2023-07-13T01:34:53;16.30;67.00
76099;DHT22;64828;49.956;8.636;2023-07-13T01:35:11;16.30;67.00
76099;DHT22;64828;49.956;8.636;2023-07-13T01:35:27;16.30;66.90
76099;DHT22;64828;49.956;8.636;2023-07-13T01:35:46;16.30;66.70
76099;DHT22;64828;49.956;8.636;2023-07-13T01:36:02;16.30;66.50
76099;DHT22;64828;49.956;8.636;2023-07-13T01:36:18;16.30;66.70
76099;DHT22;64828;49.956;8.636;2023-07-13T01:36:36;16.30;66.30
76099;DHT22;64828;49.956;8.636;2023-07-13T01:36:52;16.40;66.00
76099;DHT22;64828;49.956;8.636;2023-07-13T01:37:09;16.40;66.00
76099;DHT22;64828;49.956;8.636;2023-07-13T01:37:26;16.40;66.00
76099;DHT22;64828;49.956;8.636;2023-07-13T01:37:42;16.40;66.00
76099;DHT22;64828;49.956;8.636;2023-07-13T01:38:00;16.40;66.00
76099;DHT22;64828;49.956;8.636;2023-07-13T01:38:19;16.40;66.00
76099;DHT22;64828;49.956;8.636;2023-07-13T01:38:35;16.40;66.20
76099;DHT22;64828;49.956;8.636;2023-07-13T01:38:51;16.40;66.60
76099;DHT22;64828;49.956;8.636;2023-07-13T01:39:07;16.30;66.70
76099;DHT22;64828;49.956;8.636;2023-07-13T01:39:23;16.30;66.90
76099;DHT22;64828;49.956;8.636;2023-07-13T01:39:39;16.30;67.50
76099;DHT22;64828;49.956;8.636;2023-07-13T01:39:54;16.20;67.90
76099;DHT22;64828;49.956;8.636;2023-07-13T01:40:10;16.20;68.30
76099;DHT22;64828;49.956;8.636;2023-07-13T01:40:27;16.20;68.70
76099;DHT22;64828;49.956;8.636;2023-07-13T01:40:42;16.20;67.70
76099;DHT22;64828;49.956;8.636;2023-07-13T01:40:58;16.20;67.70
76099;DHT22;64828;49.956;8.636;2023-07-13T01:41:14;16.20;67.60
76099;DHT22;64828;49.956;8.636;2023-07-13T01:41:29;16.20;67.80
76099;DHT22;64828;49.956;8.636;2023-07-13T01:41:45;16.20;68.90
76099;DHT22;64828;49.956;8.636;2023-07-13T01:42:01;16.20;69.20
76099;DHT22;64828;49.956;8.636;2023-07-13T01:42:17;16.10;69.60
76099;DHT22;64828;49.956;8.636;2023-07-13T01:42:32;16.10;70.10
76099;DHT22;64828;49.956;8.636;2023-07-13T01:42:48;16.10;70.40
76099;DHT22;64828;49.956;8.636;2023-07-13T01:43:04;16.10;70.70
76099;DHT22;64828;49.956;8.636;2023-07-13T01:43:19;16.00;70.60
76099;DHT22;64828;49.956;8.636;2023-07-13T01:43:35;16.00;70.50
76099;DHT22;64828;49.956;8.636;2023-07-13T01:43:50;16.00;70.70
76099;DHT22;64828;49.956;8.636;2023-07-13T01:44:06;16.00;71.80
76099;DHT22;64828;49.956;8.636;2023-07-13T01:44:21;16.00;72.50
76099;DHT22;64828;49.956;8.636;2023-07-13T01:44:37;16.00;72.80
76099;DHT22;64828;49.956;8.636;2023-07-13T01:44:52;16.00;72.80
76099;DHT22;64828;49.956;8.636;2023-07-13T01:45:08;15.90;72.90
76099;DHT22;64828;49.956;8.636;2023-07-13T01:45:24;15.90;73.00
76099;DHT22;64828;49.956;8.636;2023-07-13T01:45:40;15.90;72.50
76099;DHT22;64828;49.956;8.636;2023-07-13T01:45:55;15.80;72.60
76099;DHT22;64828;49.956;8.636;2023-07-13T01:46:11;15.80;72.30
76099;DHT22;64828;49.956;8.636;2023-07-13T01:46:26;15.80;72.40
76099;DHT22;64828;49.956;8.636;2023-07-13T01:46:42;15.80;72.50
76099;DHT22;64828;49.956;8.636;2023-07-13T01:46:58;15.70;72.70
76099;DHT22;64828;49.956;8.636;2023-07-13T01:47:13;15.70;73.00
76099;DHT22;64828;49.956;8.636;2023-07-13T01:47:29;15.70;73.00
76099;DHT22;64828;49.956;8.636;2023-07-13T01:47:46;15.70;73.20